Time;durP1;ratioP1;P1;durP2;ratioP2;P2;SDS_P1;SDS_P2;PMS_P1;PMS_P2;Temp;Humidity;BMP_temperature;BMP_pressure;BME280_temperature;BME280_humidity;BME280_pressure;Samples;Min_cycle;Max_cycle;Signal;HPM_P1;HPM_P2
2023/01/31 00:00:54;;;;;;;6.77;3.83;;;;;;;2.78;96.53;99758.00;4970153;28;20240;-58
2023/01/31 00:03:21;;;;;;;7.93;3.87;;;;;;;2.77;96.32;99751.16;4970095;28;20288;-59
2023/01/31 00:05:47;;;;;;;7.10;3.73;;;;;;;2.78;95.60;99755.41;4971229;28;20284;-57
2023/01/31 00:08:14;;;;;;;9.73;3.73;;;;;;;2.79;95.36;99751.94;4972026;28;20697;-58
2023/01/31 00:10:41;;;;;;;7.40;4.03;;;;;;;2.79;95.51;99749.34;4989544;28;20236;-58
2023/01/31 00:13:07;;;;;;;9.80;4.20;;;;;;;2.78;95.62;99739.94;4972082;28;20657;-59
2023/01/31 00:15:34;;;;;;;6.03;3.50;;;;;;;2.78;95.23;99747.69;4975312;28;20236;-58
2023/01/31 00:18:02;;;;;;;7.17;4.10;;;;;;;2.82;95.99;99745.81;4967672;28;20284;-59
2023/01/31 00:20:28;;;;;;;7.60;3.70;;;;;;;2.79;95.17;99739.88;4976244;28;20228;-59
2023/01/31 00:22:55;;;;;;;5.67;3.67;;;;;;;2.78;95.43;99743.38;4971540;28;20229;-57
2023/01/31 00:25:21;;;;;;;8.57;4.23;;;;;;;2.82;94.99;99743.22;4972544;28;20225;-57
2023/01/31 00:27:48;;;;;;;5.73;4.00;;;;;;;2.82;95.04;99745.81;4973176;28;20248;-59
2023/01/31 00:30:15;;;;;;;7.33;3.93;;;;;;;2.81;94.48;99747.53;4979867;28;20233;-58
2023/01/31 00:32:41;;;;;;;8.33;4.33;;;;;;;2.78;94.96;99738.22;4975207;28;20285;-58
2023/01/31 00:35:09;;;;;;;7.20;4.13;;;;;;;2.78;95.42;99752.84;4973226;28;20236;-58
2023/01/31 00:37:36;;;;;;;13.40;4.07;;;;;;;2.83;94.26;99747.47;4972039;28;20224;-58
2023/01/31 00:40:03;;;;;;;6.50;3.90;;;;;;;2.78;95.04;99738.22;4969972;28;20304;-57
2023/01/31 00:42:29;;;;;;;7.57;3.80;;;;;;;2.76;95.69;99740.03;4979471;28;20608;-58
2023/01/31 00:44:56;;;;;;;10.10;4.10;;;;;;;2.76;94.70;99737.44;4972651;28;20593;-58
2023/01/31 00:47:24;;;;;;;9.70;4.30;;;;;;;2.76;94.53;99731.44;4974507;28;20303;-57
2023/01/31 00:49:50;;;;;;;8.20;4.67;;;;;;;2.75;94.67;99733.19;4974129;28;20276;-58
2023/01/31 00:52:19;;;;;;;8.70;4.23;;;;;;;2.76;96.12;99739.19;4988138;28;20317;-58
2023/01/31 00:54:46;;;;;;;8.10;4.47;;;;;;;2.77;95.25;99741.69;4975942;28;20705;-57
2023/01/31 00:57:13;;;;;;;10.90;4.77;;;;;;;2.74;94.31;99739.28;4983593;28;21111;-58
2023/01/31 00:59:39;;;;;;;10.23;4.73;;;;;;;2.78;94.16;99737.38;4984998;28;20309;-58
2023/01/31 01:02:06;;;;;;;8.47;4.47;;;;;;;2.76;95.01;99732.28;4975633;28;20240;-59
2023/01/31 01:04:32;;;;;;;13.13;4.77;;;;;;;2.73;95.47;99731.59;4983961;28;20237;-58
2023/01/31 01:06:59;;;;;;;5.10;4.00;;;;;;;2.72;94.97;99728.19;4976371;28;20543;-58
2023/01/31 01:09:27;;;;;;;8.10;4.77;;;;;;;2.71;94.56;99728.25;4971996;28;20259;-59
2023/01/31 01:11:54;;;;;;;9.13;4.50;;;;;;;2.72;95.90;99719.59;4974617;28;20262;-58
2023/01/31 01:14:20;;;;;;;7.20;4.60;;;;;;;2.71;95.44;99715.34;4983959;28;20597;-59
2023/01/31 01:16:47;;;;;;;8.73;4.87;;;;;;;2.72;95.15;99717.88;4969924;28;20242;-59
2023/01/31 01:19:18;;;;;;;10.67;5.40;;;;;;;2.72;94.97;99717.88;4977827;28;20226;-59
2023/01/31 01:21:46;;;;;;;9.60;4.83;;;;;;;2.70;95.21;99714.53;4973669;28;20313;-59
2023/01/31 01:24:16;;;;;;;8.87;4.50;;;;;;;2.68;95.00;99721.50;4978157;28;20238;-59
2023/01/31 01:26:45;;;;;;;7.47;4.63;;;;;;;2.64;95.29;99715.69;4978034;28;20225;-60
2023/01/31 01:29:12;;;;;;;10.70;5.00;;;;;;;2.66;95.11;99721.56;4984317;28;20321;-60
2023/01/31 01:31:39;;;;;;;7.93;4.87;;;;;;;2.65;94.92;99722.47;4974976;28;20697;-59
2023/01/31 01:34:08;;;;;;;7.70;4.73;;;;;;;2.67;95.49;99725.00;4980592;28;20228;-59
2023/01/31 01:36:37;;;;;;;9.07;4.70;;;;;;;2.65;95.52;99729.41;4974646;28;20230;-60
2023/01/31 01:39:05;;;;;;;9.43;4.83;;;;;;;2.64;95.76;99732.88;4976369;28;20248;-60
2023/01/31 01:41:33;;;;;;;9.37;5.07;;;;;;;2.64;95.54;99740.63;4982885;28;20244;-60
2023/01/31 01:44:03;;;;;;;7.90;4.27;;;;;;;2.65;95.45;99735.38;4974811;28;20236;-59
2023/01/31 01:46:33;;;;;;;11.38;6.00;;;;;;;2.69;95.13;99733.50;4974810;28;20449;-60
2023/01/31 01:49:02;;;;;;;11.00;4.70;;;;;;;2.68;96.29;99729.25;4971106;28;20281;-59
2023/01/31 01:51:33;;;;;;;9.37;4.80;;;;;;;2.68;94.76;99724.09;4977441;28;20609;-58
2023/01/31 01:54:04;;;;;;;12.40;4.73;;;;;;;2.70;95.95;99727.44;4974870;28;20319;-59
2023/01/31 01:56:36;;;;;;;12.83;5.10;;;;;;;2.71;94.63;99725.66;4980418;28;20931;-59
2023/01/31 01:59:09;;;;;;;6.90;5.03;;;;;;;2.71;95.39;99718.78;4975319;28;20241;-59
2023/01/31 02:01:38;;;;;;;9.20;4.97;;;;;;;2.70;95.34;99721.44;4978950;28;20233;-59
2023/01/31 02:04:14;;;;;;;10.37;5.40;;;;;;;2.67;96.07;99722.41;4976009;28;20225;-60
2023/01/31 02:06:43;;;;;;;11.40;5.40;;;;;;;2.66;95.38;99726.72;4983725;28;20248;-58
2023/01/31 02:09:16;;;;;;;13.50;5.20;;;;;;;2.65;95.65;99719.09;4974903;28;20228;-60
2023/01/31 02:11:43;;;;;;;10.33;5.03;;;;;;;2.66;96.15;99731.06;4971824;28;20244;-59
2023/01/31 02:14:11;;;;;;;8.13;5.00;;;;;;;2.66;93.98;99721.56;4983044;28;20228;-59
2023/01/31 02:16:38;;;;;;;10.10;5.07;;;;;;;2.67;96.33;99722.41;4975724;28;20221;-59
2023/01/31 02:19:14;;;;;;;10.10;5.00;;;;;;;2.69;95.40;99738.66;4971290;28;20228;-59
2023/01/31 02:22:15;;;;;;;12.37;5.03;;;;;;;2.68;95.34;99734.41;4972829;28;20229;-60
2023/01/31 02:25:11;;;;;;;10.17;5.57;;;;;;;2.67;96.32;99735.31;4968121;28;20645;-58
2023/01/31 02:28:06;;;;;;;11.73;5.80;;;;;;;2.64;95.83;99744.03;4968622;28;20255;-59
2023/01/31 02:31:06;;;;;;;10.50;5.50;;;;;;;2.65;96.18;99750.84;4972199;28;20687;-59
2023/01/31 02:33:42;;;;;;;13.20;6.40;;;;;;;2.71;94.94;99751.44;4975135;28;20225;-59
2023/01/31 02:36:18;;;;;;;9.40;5.60;;;;;;;2.66;94.91;99746.53;4969699;28;20259;-59
2023/01/31 02:39:02;;;;;;;12.80;6.70;;;;;;;2.63;95.45;99742.38;4974510;28;20240;-59
2023/01/31 02:41:37;;;;;;;12.23;6.27;;;;;;;2.62;96.88;99745.00;4983064;28;20228;-59
2023/01/31 02:47:10;;;;;;;12.17;5.40;;;;;;;2.60;96.16;99737.34;4981200;28;20240;-58
2023/01/31 02:49:45;;;;;;;12.67;6.40;;;;;;;2.60;95.56;99746.81;4984263;28;20232;-59
2023/01/31 02:52:24;;;;;;;14.20;6.07;;;;;;;2.66;96.12;99754.25;4968227;28;20232;-59
2023/01/31 02:57:55;;;;;;;11.20;5.67;;;;;;;2.63;96.46;99747.53;4973103;28;20229;-59
2023/01/31 03:00:23;;;;;;;18.43;6.90;;;;;;;2.63;96.60;99744.94;4972482;28;20711;-59
2023/01/31 03:02:50;;;;;;;11.87;6.37;;;;;;;2.66;96.51;99739.63;4979579;28;20244;-59
2023/01/31 03:05:19;;;;;;;14.13;6.73;;;;;;;2.62;96.91;99745.00;4977511;28;20611;-59
2023/01/31 03:07:49;;;;;;;12.43;6.40;;;;;;;2.60;96.55;99742.50;4973368;28;20231;-57
2023/01/31 03:10:28;;;;;;;13.40;6.43;;;;;;;2.60;96.77;99744.25;4977022;28;20688;-59
2023/01/31 03:13:10;;;;;;;15.30;6.80;;;;;;;2.61;97.61;99745.91;4970517;28;20236;-58
2023/01/31 03:18:44;;;;;;;16.47;6.50;;;;;;;2.65;96.94;99739.72;4985467;28;20330;-59
2023/01/31 03:21:16;;;;;;;15.57;6.80;;;;;;;2.63;96.31;99738.94;4971786;28;20237;-59
2023/01/31 03:23:48;;;;;;;16.07;7.00;;;;;;;2.63;97.37;99729.47;4970321;28;20336;-59
2023/01/31 03:26:18;;;;;;;13.93;7.10;;;;;;;2.65;96.59;99727.63;4971595;28;20234;-59
2023/01/31 03:28:46;;;;;;;12.67;6.73;;;;;;;2.64;97.53;99730.31;4969244;28;20269;-59
2023/01/31 03:31:19;;;;;;;14.70;7.63;;;;;;;2.63;96.47;99728.63;4972121;28;20320;-59
2023/01/31 03:33:50;;;;;;;17.70;6.67;;;;;;;2.65;96.91;99725.06;4978902;28;20237;-59
2023/01/31 03:36:28;;;;;;;16.10;6.53;;;;;;;2.64;97.58;99726.00;4982705;28;20241;-59
2023/01/31 03:39:09;;;;;;;15.07;6.70;;;;;;;2.65;96.84;99731.97;4968785;28;20267;-58
2023/01/31 03:41:47;;;;;;;16.10;6.40;;;;;;;2.64;97.41;99732.88;4981951;28;20756;-58
2023/01/31 03:44:24;;;;;;;15.33;6.60;;;;;;;2.63;96.96;99733.78;4969960;28;20255;-59
2023/01/31 03:47:03;;;;;;;17.50;8.65;;;;;;;2.68;97.60;99736.13;4964331;28;20453;-59
2023/01/31 03:49:32;;;;;;;22.43;7.53;;;;;;;2.63;96.34;99737.22;4974633;28;20286;-59
2023/01/31 03:52:04;;;;;;;13.80;7.20;;;;;;;2.61;97.55;99746.75;4965898;28;20605;-59
2023/01/31 03:54:37;;;;;;;17.33;7.80;;;;;;;2.61;98.01;99745.91;4981840;28;20233;-59
2023/01/31 03:57:11;;;;;;;19.97;8.20;;;;;;;2.60;97.21;99744.25;4975849;28;20288;-59
2023/01/31 03:59:40;;;;;;;13.93;6.90;;;;;;;2.60;96.88;99754.56;4972969;28;20236;-58
2023/01/31 04:02:11;;;;;;;14.57;7.17;;;;;;;2.57;96.81;99750.38;4979308;28;20807;-59
2023/01/31 04:04:42;;;;;;;12.83;6.47;;;;;;;2.57;97.25;99758.13;4975671;28;20698;-59
2023/01/31 04:07:11;;;;;;;15.90;7.03;;;;;;;2.57;96.55;99757.28;4969787;28;20225;-58
2023/01/31 04:09:40;;;;;;;19.70;7.83;;;;;;;2.59;97.02;99758.03;4972180;28;20221;-59
2023/01/31 04:12:06;;;;;;;14.43;7.23;;;;;;;2.67;96.59;99763.66;4966900;28;20237;-59
2023/01/31 04:14:33;;;;;;;9.93;6.07;;;;;;;2.58;95.04;99770.09;4973819;28;20244;-59
2023/01/31 04:17:00;;;;;;;12.23;6.30;;;;;;;2.39;96.83;99764.94;4971556;28;20241;-59
2023/01/31 04:19:26;;;;;;;12.03;5.93;;;;;;;2.37;97.63;99759.03;4973455;28;20245;-60
2023/01/31 04:21:53;;;;;;;16.83;6.77;;;;;;;2.36;99.10;99758.22;4969618;28;20593;-58
2023/01/31 04:24:21;;;;;;;17.10;6.73;;;;;;;2.39;98.47;99766.69;4977454;28;20604;-59
2023/01/31 04:26:47;;;;;;;13.13;6.83;;;;;;;2.41;98.59;99763.13;4971276;28;20701;-59
2023/01/31 04:29:14;;;;;;;9.73;6.00;;;;;;;2.31;97.35;99755.00;4976212;28;20806;-59
2023/01/31 04:31:43;;;;;;;12.87;7.27;;;;;;;2.27;98.25;99739.75;5193265;23;20225;-57
2023/01/31 04:34:10;;;;;;;15.83;6.90;;;;;;;2.25;98.97;99741.53;4965861;28;20234;-57
2023/01/31 04:36:36;;;;;;;15.30;7.33;;;;;;;2.26;98.78;99741.50;4965478;28;20736;-57
2023/01/31 04:39:03;;;;;;;12.07;5.97;;;;;;;2.27;99.15;99752.63;4963126;28;20451;-56
2023/01/31 04:41:31;;;;;;;14.70;7.47;;;;;;;2.19;98.39;99756.38;4968099;28;20241;-57
2023/01/31 04:44:01;;;;;;;12.40;6.30;;;;;;;2.22;100.00;99763.97;4963109;28;20225;-56
2023/01/31 04:46:27;;;;;;;16.07;7.03;;;;;;;2.20;100.00;99749.50;4967109;28;20222;-56
2023/01/31 04:48:54;;;;;;;14.17;7.13;;;;;;;2.24;100.00;99745.88;4964107;28;20665;-58
2023/01/31 04:51:20;;;;;;;12.70;7.07;;;;;;;2.27;100.00;99744.88;4967752;28;20228;-57
2023/01/31 04:53:47;;;;;;;14.57;6.97;;;;;;;2.25;99.73;99744.13;4960485;28;20218;-57
2023/01/31 04:56:14;;;;;;;14.03;7.53;;;;;;;2.22;100.00;99748.50;4963925;28;20920;-54
2023/01/31 04:58:43;;;;;;;13.13;7.20;;;;;;;2.28;99.72;99756.88;4966430;28;20222;-57
2023/01/31 05:01:09;;;;;;;13.27;7.10;;;;;;;2.23;100.00;99762.25;4963442;28;20233;-57
2023/01/31 05:03:36;;;;;;;17.10;7.20;;;;;;;2.19;100.00;99751.22;4966919;28;20592;-58
2023/01/31 05:06:02;;;;;;;11.80;5.90;;;;;;;2.21;100.00;99748.59;4963078;28;21472;-58
2023/01/31 05:08:29;;;;;;;13.53;7.57;;;;;;;2.24;99.75;99743.31;4966678;28;20232;-58
2023/01/31 05:10:59;;;;;;;10.83;6.20;;;;;;;2.20;99.43;99744.34;4971394;28;20229;-58
2023/01/31 05:13:26;;;;;;;13.90;6.93;;;;;;;2.08;100.00;99748.31;4965723;28;20225;-58
2023/01/31 05:15:54;;;;;;;15.97;6.70;;;;;;;2.09;100.00;99744.00;4963351;28;20776;-57
2023/01/31 05:18:20;;;;;;;12.63;7.10;;;;;;;2.01;100.00;99745.16;4966898;28;20237;-55
2023/01/31 05:20:49;;;;;;;18.47;8.57;;;;;;;1.99;100.00;99754.72;4965066;28;20294;-58
2023/01/31 05:23:16;;;;;;;16.40;7.90;;;;;;;1.92;100.00;99749.00;4971579;28;20231;-57
2023/01/31 05:25:44;;;;;;;13.63;8.10;;;;;;;1.87;100.00;99745.78;4966354;28;20389;-59
2023/01/31 05:28:11;;;;;;;14.93;7.83;;;;;;;1.85;100.00;99746.75;4964554;28;20232;-58
2023/01/31 05:30:38;;;;;;;12.30;7.50;;;;;;;1.81;100.00;99758.09;4965202;28;20305;-57
2023/01/31 05:33:06;;;;;;;13.53;7.20;;;;;;;1.82;100.00;99744.31;4965257;28;20233;-56
2023/01/31 05:35:33;;;;;;;13.67;7.63;;;;;;;1.86;100.00;99749.28;4964890;28;20233;-58
2023/01/31 05:37:59;;;;;;;15.20;7.63;;;;;;;1.77;100.00;99753.06;4964585;28;20228;-58
2023/01/31 05:40:26;;;;;;;13.03;7.47;;;;;;;1.71;100.00;99755.09;4967152;28;20225;-59
2023/01/31 05:42:58;;;;;;;19.10;10.57;;;;;;;1.71;100.00;99749.94;4964316;28;21289;-58
2023/01/31 05:45:25;;;;;;;17.37;9.07;;;;;;;1.65;100.00;99755.34;4969417;28;20261;-56
2023/01/31 05:47:51;;;;;;;16.47;8.80;;;;;;;1.52;100.00;99755.88;4964968;28;20221;-57
2023/01/31 05:50:20;;;;;;;14.20;9.00;;;;;;;1.54;100.00;99758.41;4965856;28;20237;-57
2023/01/31 05:52:51;;;;;;;19.60;9.80;;;;;;;1.52;100.00;99766.16;4965268;28;20280;-57
2023/01/31 05:55:18;;;;;;;15.13;8.97;;;;;;;1.44;100.00;99763.94;4969516;28;20318;-59
2023/01/31 05:57:45;;;;;;;13.33;8.53;;;;;;;1.28;100.00;99768.84;4967142;28;20236;-60
2023/01/31 06:00:13;;;;;;;19.10;9.67;;;;;;;1.22;100.00;99776.81;4969486;28;20237;-58
2023/01/31 06:02:40;;;;;;;18.97;9.73;;;;;;;1.09;100.00;99771.34;4969465;28;20230;-58
2023/01/31 06:05:07;;;;;;;20.63;10.23;;;;;;;1.14;100.00;99763.44;4964965;28;20218;-59
2023/01/31 06:07:35;;;;;;;16.83;10.00;;;;;;;1.09;100.00;99773.94;4968061;28;20426;-57
2023/01/31 06:10:02;;;;;;;21.80;10.10;;;;;;;1.03;100.00;99767.31;4959706;28;20288;-59
2023/01/31 06:12:28;;;;;;;17.93;9.80;;;;;;;1.06;100.00;99770.66;4966288;28;20348;-57
2023/01/31 06:14:55;;;;;;;20.00;10.67;;;;;;;0.91;100.00;99780.66;4964259;28;20222;-58
2023/01/31 06:17:22;;;;;;;21.00;10.97;;;;;;;0.84;100.00;99772.31;4965267;28;20292;-58
2023/01/31 06:19:49;;;;;;;17.77;10.60;;;;;;;0.85;100.00;99773.19;4966848;28;20214;-56
2023/01/31 06:22:16;;;;;;;19.13;9.80;;;;;;;0.74;100.00;99771.00;4968054;28;20232;-57
2023/01/31 06:24:43;;;;;;;17.37;9.90;;;;;;;0.77;100.00;99767.50;4968324;28;20291;-55
2023/01/31 06:27:10;;;;;;;16.90;10.33;;;;;;;0.64;100.00;99769.69;4965343;28;20225;-58
2023/01/31 06:29:37;;;;;;;17.13;10.80;;;;;;;0.59;100.00;99765.56;4969576;28;20226;-58
2023/01/31 06:32:04;;;;;;;17.23;9.93;;;;;;;0.62;100.00;99761.22;4965257;28;20247;-56
2023/01/31 06:34:30;;;;;;;18.80;10.63;;;;;;;0.58;100.00;99761.31;4964543;28;20696;-56
2023/01/31 06:36:57;;;;;;;18.70;10.97;;;;;;;0.56;100.00;99764.88;4965547;28;20557;-57
2023/01/31 06:39:24;;;;;;;17.23;9.73;;;;;;;0.50;100.00;99763.38;4969601;28;20236;-57
2023/01/31 06:41:52;;;;;;;18.50;11.83;;;;;;;0.47;100.00;99771.19;4966103;28;20719;-56
2023/01/31 06:44:19;;;;;;;20.93;11.40;;;;;;;0.44;100.00;99772.13;4967460;28;20230;-57
2023/01/31 06:46:46;;;;;;;21.03;12.03;;;;;;;0.41;100.00;99779.13;4966636;28;20237;-58
2023/01/31 06:49:13;;;;;;;22.73;12.50;;;;;;;0.41;100.00;99777.38;4966326;28;20237;-57
2023/01/31 06:51:39;;;;;;;24.47;13.90;;;;;;;0.39;100.00;99775.78;4968747;28;20467;-58
2023/01/31 06:54:06;;;;;;;22.87;13.70;;;;;;;0.38;100.00;99786.97;4963123;28;20238;-58
2023/01/31 06:56:33;;;;;;;21.67;12.70;;;;;;;0.37;100.00;99793.00;4965681;28;20280;-57
2023/01/31 06:59:00;;;;;;;25.30;11.53;;;;;;;0.48;100.00;99792.56;4966726;28;20311;-55
2023/01/31 07:01:27;;;;;;;19.93;11.33;;;;;;;0.44;100.00;99794.44;4964082;28;20234;-59
2023/01/31 07:03:54;;;;;;;26.57;12.57;;;;;;;0.51;100.00;99790.75;4964853;28;20232;-59
2023/01/31 07:06:21;;;;;;;37.43;21.80;;;;;;;0.50;100.00;99789.06;4969440;28;20625;-58
2023/01/31 07:08:48;;;;;;;29.97;15.83;;;;;;;0.51;100.00;99797.59;4965752;28;20240;-58
2023/01/31 07:11:15;;;;;;;24.20;13.40;;;;;;;0.48;100.00;99790.84;4966030;28;20724;-58
2023/01/31 07:13:41;;;;;;;22.87;13.13;;;;;;;0.56;100.00;99791.38;4966942;28;20237;-58
2023/01/31 07:16:09;;;;;;;19.70;11.87;;;;;;;0.51;100.00;99795.03;4963035;28;20271;-59
2023/01/31 07:18:36;;;;;;;23.90;12.87;;;;;;;0.52;100.00;99789.00;4967098;28;20237;-58
2023/01/31 07:21:02;;;;;;;23.23;12.27;;;;;;;0.55;100.00;99788.88;4965526;28;20304;-59
2023/01/31 07:23:30;;;;;;;29.17;16.43;;;;;;;0.53;100.00;99794.06;4966870;28;20236;-58
2023/01/31 07:25:56;;;;;;;29.10;17.07;;;;;;;0.53;100.00;99796.63;4964259;28;20239;-58
2023/01/31 07:28:23;;;;;;;24.67;13.43;;;;;;;0.52;100.00;99789.84;4965520;28;20637;-59
2023/01/31 07:30:52;;;;;;;28.87;16.83;;;;;;;0.50;100.00;99791.63;4963663;28;20796;-57
2023/01/31 07:33:20;;;;;;;20.03;12.07;;;;;;;0.40;100.00;99787.75;4969492;28;20222;-59
2023/01/31 07:35:47;;;;;;;20.73;10.20;;;;;;;0.44;100.00;99787.56;4966026;28;20329;-59
2023/01/31 07:38:14;;;;;;;17.80;10.07;;;;;;;0.44;100.00;99794.44;4971401;28;20241;-58
2023/01/31 07:40:40;;;;;;;19.60;9.10;;;;;;;0.52;100.00;99791.56;4966661;28;20721;-58
2023/01/31 07:43:07;;;;;;;14.23;6.27;;;;;;;0.69;100.00;99790.91;4969844;28;20236;-59
2023/01/31 07:45:34;;;;;;;20.88;7.55;;;;;;;0.77;100.00;99794.03;4967229;28;20446;-57
2023/01/31 07:48:00;;;;;;;13.90;6.27;;;;;;;0.94;100.00;99772.81;4966127;28;20288;-58
2023/01/31 07:50:28;;;;;;;16.30;6.70;;;;;;;1.01;100.00;99776.81;4967835;28;20245;-58
2023/01/31 07:52:57;;;;;;;17.63;6.03;;;;;;;1.09;100.00;99780.78;4967260;28;20620;-59
2023/01/31 07:55:23;;;;;;;15.77;5.80;;;;;;;1.10;100.00;99788.47;4967737;28;20241;-58
2023/01/31 07:57:50;;;;;;;14.00;6.37;;;;;;;1.14;100.00;99787.44;4964369;28;20694;-59
2023/01/31 08:05:47;;;;;;;11.87;5.53;;;;;;;1.29;100.00;99778.25;4965548;28;20295;-59
2023/01/31 08:08:14;;;;;;;12.83;5.73;;;;;;;1.29;100.00;99774.84;4966945;28;20236;-58
2023/01/31 08:10:41;;;;;;;21.63;10.20;;;;;;;1.27;100.00;99781.78;4967652;28;20232;-58
2023/01/31 08:13:09;;;;;;;21.77;10.90;;;;;;;1.20;100.00;99786.34;4963289;28;20228;-58
2023/01/31 08:15:36;;;;;;;23.97;11.60;;;;;;;1.12;99.91;99791.81;4966540;28;20322;-58
2023/01/31 08:18:03;;;;;;;21.23;11.47;;;;;;;0.96;100.00;99783.88;4964636;28;23073;-58
2023/01/31 08:20:29;;;;;;;18.13;7.00;;;;;;;1.07;100.00;99782.59;4969396;28;20292;-58
2023/01/31 08:22:58;;;;;;;23.00;10.40;;;;;;;1.14;100.00;99781.44;4964519;28;20236;-58
2023/01/31 08:25:27;;;;;;;28.87;14.50;;;;;;;1.22;100.00;99781.97;4970074;28;20244;-58
2023/01/31 08:27:54;;;;;;;17.43;10.10;;;;;;;1.36;100.00;99793.44;4966021;28;20233;-58
2023/01/31 08:30:21;;;;;;;23.63;11.23;;;;;;;1.41;98.92;99791.50;4967266;28;20241;-58
2023/01/31 08:32:47;;;;;;;20.73;10.23;;;;;;;1.46;99.69;99787.00;4962669;28;20233;-58
2023/01/31 08:35:14;;;;;;;22.47;11.70;;;;;;;1.60;99.27;99787.25;4965671;28;20233;-58
2023/01/31 08:37:40;;;;;;;21.97;11.20;;;;;;;1.74;99.80;99783.28;4966026;28;20221;-58
2023/01/31 08:40:10;;;;;;;25.57;11.97;;;;;;;1.85;97.72;99777.66;4963145;28;20580;-58
2023/01/31 08:42:36;;;;;;;23.23;10.57;;;;;;;2.03;96.38;99774.28;4967359;28;20230;-57
2023/01/31 08:45:05;;;;;;;19.23;10.97;;;;;;;2.02;96.22;99782.06;4963010;28;20255;-58
2023/01/31 08:47:32;;;;;;;19.30;10.07;;;;;;;2.13;97.26;99784.16;4969563;28;20677;-58
2023/01/31 08:49:59;;;;;;;20.70;10.67;;;;;;;2.15;96.15;99801.22;4962694;28;21002;-58
2023/01/31 08:52:25;;;;;;;32.67;14.97;;;;;;;1.77;97.96;99801.16;4965894;28;20241;-56
2023/01/31 08:54:52;;;;;;;25.93;16.00;;;;;;;1.81;97.55;99796.69;4965923;28;20225;-56
2023/01/31 08:57:20;;;;;;;26.37;15.23;;;;;;;1.81;98.07;99807.84;4967408;28;20621;-56
2023/01/31 08:59:49;;;;;;;17.83;10.93;;;;;;;2.03;98.13;99806.94;4970719;28;20225;-56
2023/01/31 09:02:15;;;;;;;21.10;11.37;;;;;;;1.84;97.48;99807.72;4971004;28;20253;-57
2023/01/31 09:04:42;;;;;;;22.30;13.87;;;;;;;1.70;99.25;99810.03;4970739;28;20229;-57
2023/01/31 09:07:09;;;;;;;24.27;13.80;;;;;;;1.52;98.02;99801.38;4967101;28;20237;-56
2023/01/31 09:09:35;;;;;;;28.53;11.53;;;;;;;1.74;99.40;99809.00;4970002;28;20229;-55
2023/01/31 09:12:08;;;;;;;19.73;9.80;;;;;;;1.46;99.56;99798.16;4968599;28;20411;-56
2023/01/31 09:14:36;;;;;;;28.20;11.67;;;;;;;1.54;99.54;99795.25;4970760;28;20324;-56
2023/01/31 09:17:03;;;;;;;20.27;10.40;;;;;;;1.49;100.00;99798.94;4966702;28;20293;-56
2023/01/31 09:19:29;;;;;;;20.10;11.70;;;;;;;1.71;100.00;99804.81;4969444;28;20689;-56
2023/01/31 09:21:56;;;;;;;22.43;11.33;;;;;;;1.74;97.95;99812.41;4968303;28;20641;-56
2023/01/31 09:24:22;;;;;;;20.70;11.37;;;;;;;1.84;98.58;99817.16;4970380;28;20709;-57
2023/01/31 09:26:49;;;;;;;21.40;10.37;;;;;;;1.93;98.01;99816.78;4967787;28;21171;-56
2023/01/31 09:29:16;;;;;;;18.87;10.00;;;;;;;1.71;98.68;99816.88;4972946;28;20289;-61
2023/01/31 09:31:44;;;;;;;24.03;10.30;;;;;;;2.00;97.64;99825.09;4972400;28;20245;-57
2023/01/31 09:34:10;;;;;;;29.57;18.30;;;;;;;1.96;97.78;99821.78;4967251;28;20234;-57
2023/01/31 09:36:37;;;;;;;17.13;10.00;;;;;;;2.13;95.84;99822.81;4965500;28;20578;-57
2023/01/31 09:39:04;;;;;;;20.00;11.67;;;;;;;2.39;97.55;99824.22;4965465;28;20237;-57
2023/01/31 09:41:36;;;;;;;24.90;12.07;;;;;;;2.65;95.81;99827.34;4975742;28;20319;-56
2023/01/31 09:44:06;;;;;;;19.63;11.47;;;;;;;2.71;90.77;99816.75;4965508;28;23324;-58
2023/01/31 09:46:38;;;;;;;20.40;10.63;;;;;;;2.51;91.95;99828.81;4966235;28;20237;-56
2023/01/31 09:49:10;;;;;;;15.87;9.17;;;;;;;2.22;92.29;99819.81;4968234;28;20245;-56
2023/01/31 09:51:39;;;;;;;15.33;8.13;;;;;;;2.07;92.16;99826.50;4966346;28;20229;-56
2023/01/31 09:54:14;;;;;;;20.60;10.33;;;;;;;1.99;94.87;99831.13;4966127;28;20230;-57
2023/01/31 09:56:57;;;;;;;23.30;11.40;;;;;;;1.90;96.53;99842.66;4968641;28;21073;-58
2023/01/31 09:59:32;;;;;;;23.73;11.60;;;;;;;2.04;96.55;99850.63;4967505;28;20229;-57
2023/01/31 10:02:06;;;;;;;19.27;11.10;;;;;;;2.22;96.42;99846.41;4966763;28;20248;-57
2023/01/31 10:04:49;;;;;;;24.37;13.50;;;;;;;2.28;94.98;99857.34;4969211;28;20593;-57
2023/01/31 10:07:24;;;;;;;16.87;10.47;;;;;;;2.62;91.28;99858.44;4966194;28;20576;-57
2023/01/31 10:09:57;;;;;;;20.77;11.67;;;;;;;2.93;91.34;99857.03;4965633;28;20229;-59
2023/01/31 10:12:32;;;;;;;22.43;10.53;;;;;;;3.30;90.55;99859.59;4968908;28;20252;-57
2023/01/31 10:15:02;;;;;;;23.33;11.17;;;;;;;3.15;90.01;99861.19;4964283;28;20545;-57
2023/01/31 10:17:34;;;;;;;21.97;10.50;;;;;;;3.58;87.82;99866.00;4967831;28;20238;-58
2023/01/31 10:20:10;;;;;;;18.27;9.67;;;;;;;3.63;85.51;99862.28;4961898;28;20229;-58
2023/01/31 10:22:43;;;;;;;23.80;10.60;;;;;;;3.92;86.68;99853.97;4969913;28;21111;-58
2023/01/31 10:25:32;;;;;;;15.33;8.03;;;;;;;3.91;83.38;99860.91;4965654;28;20276;-57
2023/01/31 10:28:03;;;;;;;16.13;8.80;;;;;;;4.06;82.49;99850.72;4965412;28;20248;-58
2023/01/31 10:30:41;;;;;;;15.87;7.40;;;;;;;4.40;78.35;99849.78;4967240;28;20225;-57
2023/01/31 10:33:20;;;;;;;16.47;8.67;;;;;;;3.45;83.99;99848.53;4963996;28;20225;-57
2023/01/31 10:35:51;;;;;;;14.10;7.50;;;;;;;3.93;83.20;99864.25;4964010;28;20242;-58
2023/01/31 10:38:24;;;;;;;13.00;7.17;;;;;;;4.33;82.44;99863.94;4969590;28;20221;-57
2023/01/31 10:40:57;;;;;;;15.33;7.60;;;;;;;4.42;79.59;99866.03;4965649;28;20252;-58
2023/01/31 10:43:33;;;;;;;12.50;7.37;;;;;;;4.23;78.22;99861.00;4969626;28;20225;-57
2023/01/31 10:46:01;;;;;;;13.33;7.00;;;;;;;4.27;79.56;99851.34;4967788;28;20547;-57
2023/01/31 10:48:29;;;;;;;11.47;7.10;;;;;;;4.13;79.73;99857.22;4968686;28;20243;-57
2023/01/31 10:51:07;;;;;;;17.93;7.60;;;;;;;4.12;80.35;99858.16;4963140;28;20755;-57
2023/01/31 10:53:54;;;;;;;15.37;7.13;;;;;;;3.64;79.81;99840.72;4967231;28;20689;-58
2023/01/31 10:56:28;;;;;;;12.93;6.77;;;;;;;4.10;82.07;99841.88;4965475;28;20221;-57
2023/01/31 10:58:56;;;;;;;10.77;6.00;;;;;;;3.84;81.82;99834.53;4963920;28;20229;-58
2023/01/31 11:01:23;;;;;;;17.87;6.60;;;;;;;3.88;81.17;99827.47;4967411;28;20648;-61
2023/01/31 11:03:55;;;;;;;14.83;6.67;;;;;;;4.00;79.62;99828.59;4964637;28;20636;-58
2023/01/31 11:06:24;;;;;;;13.63;6.40;;;;;;;3.90;80.23;99810.16;4967754;28;20237;-57
2023/01/31 11:08:55;;;;;;;11.00;6.10;;;;;;;3.95;79.31;99799.56;4947548;28;20228;-57
2023/01/31 11:11:23;;;;;;;12.70;5.83;;;;;;;4.01;78.06;99788.91;4968681;28;20229;-57
2023/01/31 11:13:58;;;;;;;13.87;6.50;;;;;;;3.86;78.30;99785.41;4960876;28;20244;-57
2023/01/31 11:16:29;;;;;;;12.67;5.40;;;;;;;3.72;78.63;99782.69;4954040;28;20269;-57
2023/01/31 11:19:01;;;;;;;15.87;5.70;;;;;;;3.80;77.80;99786.53;4962480;28;20229;-58
2023/01/31 11:21:33;;;;;;;16.20;5.90;;;;;;;4.08;76.49;99777.34;4967771;28;20632;-58
2023/01/31 11:24:03;;;;;;;13.07;5.90;;;;;;;4.11;76.36;99774.59;4961444;28;20222;-56
2023/01/31 11:26:31;;;;;;;12.23;5.27;;;;;;;4.29;74.47;99782.31;4969932;28;20607;-58
2023/01/31 11:28:59;;;;;;;12.20;4.53;;;;;;;4.63;74.51;99764.13;4967807;28;20602;-58
2023/01/31 11:31:30;;;;;;;9.57;4.37;;;;;;;4.84;73.52;99755.16;4965577;28;20237;-58
2023/01/31 11:33:59;;;;;;;11.73;4.40;;;;;;;4.99;73.68;99757.81;4964520;28;20243;-58
2023/01/31 11:36:31;;;;;;;11.63;4.83;;;;;;;5.27;71.85;99774.38;4967722;28;20257;-58
2023/01/31 11:38:58;;;;;;;10.13;4.40;;;;;;;5.32;70.31;99780.94;4963115;28;20624;-58
2023/01/31 11:41:32;;;;;;;9.67;4.33;;;;;;;5.51;69.64;99784.19;4963402;28;20719;-58
2023/01/31 11:44:14;;;;;;;9.90;4.33;;;;;;;5.48;70.89;99782.63;4962089;28;20304;-58
2023/01/31 11:46:49;;;;;;;12.20;4.10;;;;;;;5.82;67.79;99767.69;4963084;28;20237;-57
2023/01/31 11:49:38;;;;;;;12.50;4.83;;;;;;;5.72;68.08;99767.38;4965717;28;20641;-58
2023/01/31 11:52:13;;;;;;;10.27;4.67;;;;;;;5.72;67.43;99767.38;4957429;28;20269;-58
2023/01/31 11:54:45;;;;;;;9.27;4.17;;;;;;;5.51;69.83;99751.38;4967243;28;20221;-58